KSNA/SNA METAR and TAF weather

Enter ICAO airport designator
Station Type Date Time Source
KSNA METAR 2022/11/27 07:53 UTC NOAA

KSNA 270753Z AUTO 00000KT 10SM CLR 13/06 A3006 RMK AO2 SLP179 T01330061 402110094


Station Type Date Time Source
KSNA Decoded METAR 2022/11/27 07:53 UTC NOAA

SANTA ANA WAYNE ORANGE CTY, CA, United States (KSNA) 33-41N 117-52W 15M
Nov 27, 2022 - 02:53 AM EST / 2022.11.27 0753 UTC
Wind: Calm:0
Visibility: 10 mile(s):0
Sky conditions: clear
Temperature: 55.9 F (13.3 C)
Dew Point: 43.0 F (6.1 C)
Relative Humidity: 61%
Pressure (altimeter): 30.06 in. Hg (1017 hPa)
ob: KSNA 270753Z AUTO 00000KT 10SM CLR 13/06 A3006 RMK AO2 SLP179 T01330061 402110094
cycle: 8

Station Type Date Time Source
KSNA TAF 2022/11/27 06:22 UTC NOAA

TAF KSNA 270520Z 2706/2806 VRB03KT P6SM SKC
FM271900 21007KT P6SM SKC
FM280200 VRB03KT P6SM FEW010

Example: see airport list